Time;durP1;ratioP1;P1;durP2;ratioP2;P2;SDS_P1;SDS_P2;PMS_P1;PMS_P2;Temp;Humidity;BMP_temperature;BMP_pressure;BME280_temperature;BME280_humidity;BME280_pressure;Samples;Min_cycle;Max_cycle;Signal;HPM_P1;HPM_P2
2024/04/16 00:03:36;;;;;;;7.28;3.40;;;;;;;;;;11121634;26;20008;-59
2024/04/16 00:08:37;;;;;;;3.03;2.40;;;;;;;;;;11121015;26;20103;-60
2024/04/16 00:13:39;;;;;;;7.00;2.97;;;;;;;;;;11123740;26;20040;-56
2024/04/16 00:18:40;;;;;;;9.57;3.35;;;;;;;;;;11123620;26;20011;-60
2024/04/16 00:23:41;;;;;;;4.50;3.00;;;;;;;;;;11125224;26;20529;-60
2024/04/16 00:28:42;;;;;;;4.82;3.20;;;;;;;;;;11125597;26;20043;-59
2024/04/16 00:33:43;;;;;;;3.58;2.80;;;;;;;;;;11118810;26;20099;-59
2024/04/16 00:38:45;;;;;;;5.50;3.10;;;;;;;;;;11123802;26;20000;-59
2024/04/16 00:43:46;;;;;;;3.78;2.92;;;;;;;;;;11123832;26;20118;-60
2024/04/16 00:48:47;;;;;;;5.40;3.22;;;;;;;;;;11121766;26;20025;-60
2024/04/16 00:53:48;;;;;;;5.97;3.10;;;;;;;;;;11123044;26;20098;-59
2024/04/16 00:58:49;;;;;;;9.05;3.17;;;;;;;;;;11123499;26;20024;-59
2024/04/16 01:03:51;;;;;;;4.90;2.80;;;;;;;;;;11122714;26;20536;-60
2024/04/16 01:08:52;;;;;;;6.75;3.45;;;;;;;;;;11122311;26;20106;-59
2024/04/16 01:13:57;;;;;;;3.85;2.80;;;;;;;;;;11122611;26;20040;-59
2024/04/16 01:19:00;;;;;;;4.70;3.00;;;;;;;;;;11124078;26;20439;-59
2024/04/16 01:24:01;;;;;;;3.70;2.80;;;;;;;;;;11108840;26;20123;-59
2024/04/16 01:29:03;;;;;;;6.15;2.67;;;;;;;;;;11099978;26;20026;-59
2024/04/16 01:34:04;;;;;;;4.93;2.90;;;;;;;;;;11092578;26;20012;-60
2024/04/16 01:39:05;;;;;;;4.10;2.50;;;;;;;;;;11103302;26;20028;-59
2024/04/16 01:44:06;;;;;;;5.32;2.50;;;;;;;;;;11113434;26;20009;-59
2024/04/16 01:49:07;;;;;;;5.25;3.00;;;;;;;;;;11121292;26;20004;-58
2024/04/16 01:54:08;;;;;;;3.75;2.78;;;;;;;;;;11122235;26;19996;-59
2024/04/16 01:59:09;;;;;;;3.78;2.47;;;;;;;;;;11118163;26;20032;-59
2024/04/16 02:04:10;;;;;;;4.20;3.08;;;;;;;;;;11119260;26;20008;-58
2024/04/16 02:09:11;;;;;;;3.85;2.40;;;;;;;;;;11110748;26;20557;-58
2024/04/16 02:14:13;;;;;;;5.88;2.92;;;;;;;;;;11119836;26;20034;-58
2024/04/16 02:19:14;;;;;;;5.72;3.13;;;;;;;;;;11120106;26;20495;-59
2024/04/16 02:24:15;;;;;;;4.47;2.40;;;;;;;;;;11120729;26;20085;-58
2024/04/16 02:29:16;;;;;;;3.03;2.35;;;;;;;;;;11122085;26;20414;-58
2024/04/16 02:34:18;;;;;;;2.97;2.40;;;;;;;;;;11126120;26;20000;-59
2024/04/16 02:39:19;;;;;;;5.10;2.60;;;;;;;;;;11126686;26;20323;-59
2024/04/16 02:44:20;;;;;;;3.53;2.63;;;;;;;;;;11117785;26;20054;-59
2024/04/16 02:49:21;;;;;;;5.68;2.88;;;;;;;;;;11126130;26;20367;-59
2024/04/16 02:54:22;;;;;;;5.57;2.90;;;;;;;;;;11126609;26;20130;-59
2024/04/16 02:59:24;;;;;;;7.35;2.85;;;;;;;;;;11122160;26;20000;-59
2024/04/16 03:04:25;;;;;;;4.43;2.42;;;;;;;;;;11127087;26;20000;-59
2024/04/16 03:09:26;;;;;;;3.47;2.33;;;;;;;;;;11127033;26;20060;-60
2024/04/16 03:14:27;;;;;;;3.22;2.85;;;;;;;;;;11125938;26;20012;-59
2024/04/16 03:19:28;;;;;;;6.32;2.65;;;;;;;;;;11126805;26;20090;-59
2024/04/16 03:24:29;;;;;;;3.33;2.30;;;;;;;;;;11125074;26;20001;-59
2024/04/16 03:29:30;;;;;;;5.40;2.40;;;;;;;;;;11125418;26;20642;-58
2024/04/16 03:34:31;;;;;;;7.30;2.80;;;;;;;;;;11125012;26;20032;-59
2024/04/16 03:39:32;;;;;;;3.67;2.50;;;;;;;;;;11125346;26;20032;-59
2024/04/16 03:44:33;;;;;;;3.60;2.58;;;;;;;;;;11115432;26;20040;-59
2024/04/16 03:49:35;;;;;;;5.00;2.90;;;;;;;;;;11126563;26;20098;-59
2024/04/16 03:54:36;;;;;;;3.85;2.70;;;;;;;;;;11125415;26;20005;-60
2024/04/16 03:59:38;;;;;;;9.07;2.72;;;;;;;;;;11126035;26;20004;-60
2024/04/16 04:04:39;;;;;;;8.18;2.83;;;;;;;;;;11123947;26;19996;-60
2024/04/16 04:09:40;;;;;;;6.05;2.50;;;;;;;;;;11126654;26;20000;-60
2024/04/16 04:14:41;;;;;;;11.85;2.58;;;;;;;;;;11122252;26;20012;-60
2024/04/16 04:19:42;;;;;;;3.15;2.33;;;;;;;;;;11122815;26;20108;-60
2024/04/16 04:24:44;;;;;;;6.03;2.60;;;;;;;;;;11122320;26;20000;-59
2024/04/16 04:29:45;;;;;;;3.55;2.60;;;;;;;;;;11126296;26;20028;-58
2024/04/16 04:34:46;;;;;;;3.22;2.63;;;;;;;;;;11123013;26;20418;-59
2024/04/16 04:39:47;;;;;;;4.13;2.95;;;;;;;;;;11117460;26;20028;-59
2024/04/16 04:44:48;;;;;;;9.57;2.78;;;;;;;;;;11117332;26;20062;-59
2024/04/16 04:49:49;;;;;;;9.95;2.65;;;;;;;;;;11120325;26;20210;-59
2024/04/16 04:54:50;;;;;;;13.57;2.80;;;;;;;;;;11123913;26;20014;-59
2024/04/16 04:59:52;;;;;;;4.30;2.80;;;;;;;;;;11119316;26;20063;-59
2024/04/16 05:04:53;;;;;;;5.35;3.00;;;;;;;;;;11118084;26;20324;-58
2024/04/16 05:09:54;;;;;;;7.80;3.05;;;;;;;;;;11113433;26;20085;-60
2024/04/16 05:14:55;;;;;;;8.07;3.45;;;;;;;;;;11108457;26;20015;-59
2024/04/16 05:19:56;;;;;;;8.20;3.83;;;;;;;;;;11124759;26;20443;-60
2024/04/16 05:24:57;;;;;;;6.68;4.03;;;;;;;;;;11122727;26;19996;-59
2024/04/16 05:29:58;;;;;;;7.50;4.05;;;;;;;;;;11121108;26;20073;-61
2024/04/16 05:35:00;;;;;;;10.07;3.60;;;;;;;;;;11121813;26;19996;-59
2024/04/16 05:40:01;;;;;;;11.68;5.35;;;;;;;;;;11121230;26;20008;-60
2024/04/16 05:45:02;;;;;;;9.18;4.30;;;;;;;;;;11122300;26;20473;-58
2024/04/16 05:50:03;;;;;;;11.93;3.97;;;;;;;;;;11121718;26;20452;-58
2024/04/16 05:55:05;;;;;;;7.70;4.07;;;;;;;;;;11116776;26;20024;-59
2024/04/16 06:00:07;;;;;;;9.07;3.67;;;;;;;;;;11123311;26;20008;-59
2024/04/16 06:05:08;;;;;;;11.73;4.60;;;;;;;;;;11121145;26;20490;-62
2024/04/16 06:10:09;;;;;;;15.60;5.60;;;;;;;;;;11128671;26;20043;-63
2024/04/16 06:15:10;;;;;;;12.73;4.18;;;;;;;;;;11127961;26;20401;-62
2024/04/16 06:20:12;;;;;;;21.92;4.53;;;;;;;;;;11129117;26;20036;-62
2024/04/16 06:25:13;;;;;;;10.00;4.00;;;;;;;;;;11127926;26;20455;-63
2024/04/16 06:30:14;;;;;;;11.57;4.35;;;;;;;;;;11130337;26;20028;-63
2024/04/16 06:35:15;;;;;;;9.20;4.13;;;;;;;;;;11127211;26;20099;-61
2024/04/16 06:40:16;;;;;;;8.20;3.72;;;;;;;;;;11122474;26;20410;-63
2024/04/16 06:45:18;;;;;;;9.68;4.60;;;;;;;;;;11124440;26;20022;-62
2024/04/16 06:50:19;;;;;;;8.45;4.20;;;;;;;;;;11125283;26;20481;-62
2024/04/16 06:55:20;;;;;;;8.50;3.70;;;;;;;;;;11099148;26;20104;-61
2024/04/16 07:00:21;;;;;;;8.95;3.90;;;;;;;;;;11091067;26;20567;-61
2024/04/16 07:05:22;;;;;;;6.57;3.42;;;;;;;;;;11102527;26;20032;-61
2024/04/16 07:10:23;;;;;;;10.93;4.15;;;;;;;;;;11116303;26;20000;-62
2024/04/16 07:15:24;;;;;;;11.95;3.63;;;;;;;;;;11125287;26;19996;-63
2024/04/16 07:20:26;;;;;;;8.98;4.25;;;;;;;;;;11127222;26;20612;-61
2024/04/16 07:25:27;;;;;;;7.70;3.78;;;;;;;;;;11118199;26;20000;-60
2024/04/16 07:30:28;;;;;;;7.95;3.90;;;;;;;;;;11128278;26;20008;-60
2024/04/16 07:35:30;;;;;;;9.38;3.92;;;;;;;;;;11114807;26;20016;-59
2024/04/16 07:40:32;;;;;;;9.02;3.58;;;;;;;;;;11071611;26;20092;-60
2024/04/16 07:45:33;;;;;;;12.77;4.18;;;;;;;;;;11109887;26;20440;-58
2024/04/16 07:50:34;;;;;;;11.75;3.50;;;;;;;;;;11109608;26;20012;-60
2024/04/16 07:55:36;;;;;;;10.27;3.55;;;;;;;;;;11122475;26;20099;-60
2024/04/16 08:00:39;;;;;;;9.55;3.47;;;;;;;;;;11122661;26;20392;-60
2024/04/16 08:05:40;;;;;;;5.72;3.47;;;;;;;;;;11122061;26;20103;-61
2024/04/16 08:10:42;;;;;;;8.63;3.70;;;;;;;;;;11120195;26;20430;-61
2024/04/16 08:15:46;;;;;;;8.23;4.00;;;;;;;;;;11119670;26;20032;-62
2024/04/16 08:20:47;;;;;;;4.45;3.20;;;;;;;;;;11123229;26;20325;-61
2024/04/16 08:26:03;;;;;;;5.82;3.45;;;;;;;;;;11099584;26;20000;-61
2024/04/16 08:31:05;;;;;;;7.57;3.50;;;;;;;;;;11119374;26;20488;-61
2024/04/16 08:36:06;;;;;;;9.07;3.53;;;;;;;;;;11098635;26;20012;-62
2024/04/16 08:41:07;;;;;;;5.22;3.45;;;;;;;;;;11090683;26;20016;-61
2024/04/16 08:46:11;;;;;;;7.63;3.45;;;;;;;;;;11112771;26;20037;-61
2024/04/16 08:51:14;;;;;;;6.07;3.60;;;;;;;;;;11068492;26;20008;-61
2024/04/16 08:56:15;;;;;;;10.52;3.53;;;;;;;;;;11119862;26;20005;-61
2024/04/16 09:01:18;;;;;;;6.68;3.72;;;;;;;;;;11116649;26;20004;-61
2024/04/16 09:06:20;;;;;;;5.47;3.42;;;;;;;;;;11122380;26;20028;-61
2024/04/16 09:11:21;;;;;;;5.25;3.47;;;;;;;;;;11122371;26;20015;-61
2024/04/16 09:16:22;;;;;;;5.40;3.47;;;;;;;;;;11122202;26;20336;-60
2024/04/16 09:21:23;;;;;;;10.32;3.55;;;;;;;;;;11120252;26;20307;-61
2024/04/16 09:26:25;;;;;;;8.88;3.22;;;;;;;;;;11122255;26;19996;-61
2024/04/16 09:31:26;;;;;;;5.82;3.20;;;;;;;;;;11084582;26;20305;-61
2024/04/16 09:36:27;;;;;;;7.68;3.40;;;;;;;;;;11062466;26;20001;-61
2024/04/16 09:41:30;;;;;;;4.15;3.30;;;;;;;;;;11115488;26;20443;-61
2024/04/16 09:46:32;;;;;;;8.93;3.60;;;;;;;;;;11103829;26;20100;-60
2024/04/16 09:51:35;;;;;;;4.82;3.08;;;;;;;;;;11094356;26;20046;-61
2024/04/16 09:56:39;;;;;;;7.10;3.50;;;;;;;;;;11120190;26;20322;-61
2024/04/16 10:01:41;;;;;;;7.38;3.38;;;;;;;;;;11116601;26;20006;-61
2024/04/16 10:06:47;;;;;;;5.70;2.75;;;;;;;;;;11119803;26;20001;-61
2024/04/16 10:11:49;;;;;;;6.57;3.15;;;;;;;;;;11108392;26;20014;-60
2024/04/16 10:16:51;;;;;;;5.72;3.00;;;;;;;;;;11077483;26;20000;-61
2024/04/16 10:21:52;;;;;;;4.20;3.20;;;;;;;;;;11105420;26;20008;-61
2024/04/16 10:26:58;;;;;;;5.53;3.33;;;;;;;;;;11105941;26;20426;-60
2024/04/16 10:32:02;;;;;;;4.82;3.03;;;;;;;;;;11101660;26;20033;-61
2024/04/16 10:37:03;;;;;;;5.45;2.78;;;;;;;;;;11096117;26;20025;-61
2024/04/16 10:42:04;;;;;;;6.25;3.60;;;;;;;;;;11110632;26;20004;-61
2024/04/16 10:47:06;;;;;;;5.22;3.10;;;;;;;;;;11110715;26;20000;-61
2024/04/16 10:52:12;;;;;;;5.47;3.22;;;;;;;;;;11113530;26;20490;-61
2024/04/16 10:57:13;;;;;;;4.78;3.17;;;;;;;;;;11118057;26;20496;-61
2024/04/16 11:02:14;;;;;;;3.88;3.00;;;;;;;;;;11111718;26;20011;-61
2024/04/16 11:07:17;;;;;;;4.97;2.95;;;;;;;;;;11123445;26;20098;-61
2024/04/16 11:12:18;;;;;;;4.40;3.58;;;;;;;;;;11111528;26;20091;-61
2024/04/16 11:17:19;;;;;;;7.72;3.20;;;;;;;;;;11121962;26;19996;-60
2024/04/16 11:22:20;;;;;;;3.72;3.10;;;;;;;;;;11117716;26;20077;-60
2024/04/16 11:27:22;;;;;;;5.32;3.17;;;;;;;;;;11122556;26;20000;-58
2024/04/16 11:32:23;;;;;;;3.90;3.03;;;;;;;;;;11091016;26;20023;-58
2024/04/16 11:37:25;;;;;;;5.35;3.58;;;;;;;;;;11110357;26;20039;-58
2024/04/16 11:42:26;;;;;;;4.50;3.10;;;;;;;;;;11078367;26;20051;-58
2024/04/16 11:47:27;;;;;;;6.10;3.30;;;;;;;;;;11103375;26;20373;-60
2024/04/16 11:52:28;;;;;;;7.07;3.13;;;;;;;;;;11075805;26;20066;-58
2024/04/16 11:57:30;;;;;;;6.25;3.40;;;;;;;;;;11104876;26;20000;-59
2024/04/16 12:02:31;;;;;;;6.55;3.22;;;;;;;;;;11106524;26;20372;-57
2024/04/16 12:07:32;;;;;;;4.93;3.47;;;;;;;;;;11049405;26;20428;-57
2024/04/16 12:12:33;;;;;;;4.75;3.15;;;;;;;;;;11118043;26;20073;-58
2024/04/16 12:17:34;;;;;;;7.40;3.95;;;;;;;;;;11099000;26;20024;-58
2024/04/16 12:22:35;;;;;;;5.70;3.70;;;;;;;;;;11098401;26;20627;-58
2024/04/16 12:27:36;;;;;;;7.03;3.80;;;;;;;;;;11113536;26;20333;-58
2024/04/16 12:32:37;;;;;;;6.53;4.18;;;;;;;;;;11113344;26;20012;-59
2024/04/16 12:37:38;;;;;;;8.05;3.78;;;;;;;;;;11121082;26;20098;-57
2024/04/16 12:42:40;;;;;;;8.02;3.53;;;;;;;;;;11085924;26;20004;-58
2024/04/16 12:47:41;;;;;;;5.63;3.30;;;;;;;;;;11118596;26;20000;-59
2024/04/16 12:52:42;;;;;;;8.38;3.85;;;;;;;;;;11116661;26;20008;-58
2024/04/16 12:57:43;;;;;;;11.07;4.32;;;;;;;;;;11105743;26;19996;-57
2024/04/16 13:02:46;;;;;;;9.45;3.30;;;;;;;;;;11102678;26;20295;-58
2024/04/16 13:07:47;;;;;;;10.60;3.33;;;;;;;;;;11112302;26;20706;-58
2024/04/16 13:12:48;;;;;;;4.70;3.08;;;;;;;;;;11123432;26;20032;-58
2024/04/16 13:17:50;;;;;;;6.03;3.53;;;;;;;;;;11118992;26;20008;-57
2024/04/16 13:22:51;;;;;;;7.03;2.53;;;;;;;;;;11115364;21;20488;-62
2024/04/16 13:27:52;;;;;;;10.10;3.25;;;;;;;;;;11051260;26;20053;-63
2024/04/16 13:32:56;;;;;;;7.93;3.22;;;;;;;;;;11051639;26;20036;-64
2024/04/16 13:37:58;;;;;;;8.15;3.33;;;;;;;;;;11051725;26;20005;-65
2024/04/16 13:42:59;;;;;;;6.25;2.83;;;;;;;;;;11050443;26;20080;-65
2024/04/16 13:48:00;;;;;;;10.45;3.22;;;;;;;;;;11051366;26;20108;-61
2024/04/16 13:53:01;;;;;;;4.22;2.80;;;;;;;;;;11037835;26;20037;-61
2024/04/16 13:58:03;;;;;;;3.40;2.42;;;;;;;;;;11046314;26;20064;-61
2024/04/16 14:03:04;;;;;;;5.10;2.10;;;;;;;;;;11042919;26;20099;-62
2024/04/16 14:08:05;;;;;;;9.18;2.33;;;;;;;;;;11044884;26;20078;-64
2024/04/16 14:13:06;;;;;;;6.43;2.33;;;;;;;;;;11051860;26;20024;-62
2024/04/16 14:18:08;;;;;;;8.20;2.00;;;;;;;;;;11049254;26;20001;-61
2024/04/16 14:23:11;;;;;;;2.88;2.00;;;;;;;;;;11051287;26;20096;-63
2024/04/16 14:28:12;;;;;;;7.32;2.22;;;;;;;;;;11059080;26;20020;-65
2024/04/16 14:33:13;;;;;;;4.88;2.30;;;;;;;;;;11057062;26;20041;-64
2024/04/16 14:38:15;;;;;;;3.72;1.63;;;;;;;;;;11056646;26;20020;-62
2024/04/16 14:43:16;;;;;;;8.32;2.03;;;;;;;;;;11057606;26;20029;-59
2024/04/16 14:48:17;;;;;;;6.00;2.20;;;;;;;;;;11045015;26;20324;-58
2024/04/16 14:53:18;;;;;;;5.80;2.05;;;;;;;;;;11057563;26;20164;-62
2024/04/16 14:58:19;;;;;;;7.57;2.28;;;;;;;;;;11056032;26;20047;-63
2024/04/16 15:03:20;;;;;;;11.73;2.30;;;;;;;;;;11055843;26;20005;-61
2024/04/16 15:08:21;;;;;;;13.98;2.33;;;;;;;;;;11055216;26;20128;-54
2024/04/16 15:13:23;;;;;;;4.88;1.52;;;;;;;;;;11055536;26;20017;-64
2024/04/16 15:18:24;;;;;;;6.45;2.00;;;;;;;;;;11055147;26;20001;-64
2024/04/16 15:23:27;;;;;;;9.65;1.98;;;;;;;;;;11054334;26;20082;-63
2024/04/16 15:28:29;;;;;;;11.23;2.08;;;;;;;;;;11055801;26;20001;-61
2024/04/16 15:33:30;;;;;;;13.23;1.85;;;;;;;;;;11052637;26;20078;-62
2024/04/16 15:38:31;;;;;;;3.83;1.58;;;;;;;;;;11054613;26;20021;-63
2024/04/16 15:43:32;;;;;;;4.40;1.73;;;;;;;;;;11053289;26;20100;-63
2024/04/16 15:48:33;;;;;;;10.52;2.15;;;;;;;;;;11052842;26;20029;-53
2024/04/16 15:53:35;;;;;;;13.38;1.50;;;;;;;;;;11054683;26;20431;-55
2024/04/16 15:58:36;;;;;;;5.63;1.90;;;;;;;;;;11052412;26;20307;-54
2024/04/16 16:03:38;;;;;;;8.57;1.55;;;;;;;;;;11054308;26;20324;-57
2024/04/16 16:08:39;;;;;;;3.72;1.63;;;;;;;;;;11055227;26;20001;-62
2024/04/16 16:13:41;;;;;;;3.40;1.52;;;;;;;;;;11053089;26;20040;-65
2024/04/16 16:18:42;;;;;;;4.20;1.30;;;;;;;;;;11054071;26;20001;-59
2024/04/16 16:23:43;;;;;;;1.80;1.33;;;;;;;;;;11051113;26;20016;-58
2024/04/16 16:28:44;;;;;;;3.50;1.50;;;;;;;;;;11052070;26;20001;-61
2024/04/16 16:33:45;;;;;;;6.22;1.35;;;;;;;;;;11054059;26;20524;-56
2024/04/16 16:38:46;;;;;;;5.40;1.52;;;;;;;;;;11053243;26;20011;-57
2024/04/16 16:43:48;;;;;;;7.03;1.55;;;;;;;;;;11054124;26;20471;-55
2024/04/16 16:48:49;;;;;;;5.55;1.65;;;;;;;;;;11050648;26;20016;-64
2024/04/16 16:53:50;;;;;;;1.83;1.40;;;;;;;;;;11053199;26;20104;-55
2024/04/16 16:58:52;;;;;;;7.93;1.23;;;;;;;;;;11021613;26;20048;-59
2024/04/16 17:03:53;;;;;;;1.75;1.40;;;;;;;;;;11050162;26;20011;-56
2024/04/16 17:08:55;;;;;;;3.25;1.27;;;;;;;;;;11052524;26;20016;-62
2024/04/16 17:13:56;;;;;;;8.02;1.30;;;;;;;;;;11037111;26;20530;-59
2024/04/16 17:18:57;;;;;;;5.45;1.10;;;;;;;;;;11050132;26;20099;-55
2024/04/16 17:23:59;;;;;;;4.97;1.10;;;;;;;;;;11044670;26;20423;-65
2024/04/16 17:29:02;;;;;;;2.05;1.10;;;;;;;;;;11042065;26;20009;-58
2024/04/16 17:34:04;;;;;;;7.07;1.15;;;;;;;;;;11044969;26;20443;-65
2024/04/16 17:39:05;;;;;;;3.63;1.02;;;;;;;;;;11051570;26;19997;-53
2024/04/16 17:44:06;;;;;;;3.78;1.48;;;;;;;;;;11046633;26;20005;-62
2024/04/16 17:49:07;;;;;;;2.00;1.02;;;;;;;;;;11049263;26;20033;-64
2024/04/16 17:54:10;;;;;;;4.45;1.08;;;;;;;;;;11049712;26;20074;-61
2024/04/16 17:59:11;;;;;;;4.38;1.10;;;;;;;;;;11053644;26;20001;-53
2024/04/16 18:04:13;;;;;;;12.20;0.95;;;;;;;;;;11059289;26;20033;-58
2024/04/16 18:09:15;;;;;;;3.10;0.85;;;;;;;;;;11059528;26;20081;-58
2024/04/16 18:14:16;;;;;;;4.07;0.88;;;;;;;;;;11057957;26;20369;-66
2024/04/16 18:19:17;;;;;;;4.57;1.52;;;;;;;;;;11056879;26;20044;-65
2024/04/16 18:24:18;;;;;;;3.03;1.20;;;;;;;;;;11056204;26;20029;-64
2024/04/16 18:29:19;;;;;;;3.80;1.33;;;;;;;;;;11026848;26;20013;-57
2024/04/16 18:34:20;;;;;;;2.75;1.13;;;;;;;;;;11056697;26;20058;-66
2024/04/16 18:39:22;;;;;;;6.43;1.30;;;;;;;;;;11055480;26;20025;-66
2024/04/16 18:44:23;;;;;;;7.50;1.17;;;;;;;;;;11056646;26;20001;-66
2024/04/16 18:49:26;;;;;;;3.53;1.08;;;;;;;;;;11056113;26;20092;-66
2024/04/16 18:54:27;;;;;;;3.15;1.38;;;;;;;;;;11056275;26;20048;-65
2024/04/16 18:59:28;;;;;;;3.92;1.25;;;;;;;;;;11055999;26;20356;-66
2024/04/16 19:04:33;;;;;;;3.80;1.00;;;;;;;;;;11054659;26;20029;-56
2024/04/16 19:09:34;;;;;;;3.03;1.10;;;;;;;;;;11058181;26;20001;-55
2024/04/16 19:14:35;;;;;;;3.00;0.90;;;;;;;;;;11054719;26;20037;-56
2024/04/16 19:19:37;;;;;;;2.22;1.20;;;;;;;;;;11055162;26;20100;-55
2024/04/16 19:24:38;;;;;;;1.17;0.90;;;;;;;;;;11054569;26;20005;-57
2024/04/16 19:29:40;;;;;;;5.35;1.10;;;;;;;;;;11053839;26;20105;-55
2024/04/16 19:34:41;;;;;;;4.72;1.23;;;;;;;;;;11053501;26;20016;-55
2024/04/16 19:39:42;;;;;;;4.25;1.42;;;;;;;;;;11054412;26;20012;-56
2024/04/16 19:44:46;;;;;;;2.60;0.88;;;;;;;;;;11052779;26;20032;-58
2024/04/16 19:49:47;;;;;;;1.33;0.85;;;;;;;;;;11032454;26;20514;-52
2024/04/16 19:54:48;;;;;;;2.50;0.90;;;;;;;;;;11054249;26;20016;-55
2024/04/16 19:59:50;;;;;;;0.85;0.77;;;;;;;;;;11055003;26;20437;-63
2024/04/16 20:04:52;;;;;;;2.47;1.17;;;;;;;;;;11053221;26;20028;-60
2024/04/16 20:09:54;;;;;;;2.10;0.80;;;;;;;;;;11053783;26;20510;-52
2024/04/16 20:14:55;;;;;;;1.80;0.95;;;;;;;;;;11054430;26;20015;-64
2024/04/16 20:19:56;;;;;;;1.08;0.98;;;;;;;;;;11051805;26;20099;-63
2024/04/16 20:24:58;;;;;;;3.08;0.90;;;;;;;;;;11049570;26;20005;-62
2024/04/16 20:29:59;;;;;;;1.70;0.80;;;;;;;;;;11052363;26;20114;-66
2024/04/16 20:35:00;;;;;;;2.38;0.88;;;;;;;;;;11054015;26;20033;-66
2024/04/16 20:40:01;;;;;;;3.65;0.90;;;;;;;;;;11053658;26;20081;-65
2024/04/16 20:45:02;;;;;;;3.08;0.95;;;;;;;;;;11053027;26;20200;-66
2024/04/16 20:50:03;;;;;;;1.23;1.10;;;;;;;;;;11052295;26;20040;-61
2024/04/16 20:55:04;;;;;;;2.28;0.90;;;;;;;;;;11051845;26;20348;-66
2024/04/16 21:00:07;;;;;;;0.80;0.80;;;;;;;;;;11052080;26;20040;-61
2024/04/16 21:05:08;;;;;;;2.60;1.25;;;;;;;;;;11054259;26;20013;-65
2024/04/16 21:10:09;;;;;;;1.40;0.70;;;;;;;;;;11052934;26;20169;-62
2024/04/16 21:15:10;;;;;;;1.73;0.90;;;;;;;;;;11050490;26;19997;-61
2024/04/16 21:20:12;;;;;;;1.50;0.75;;;;;;;;;;11050209;26;20029;-61
2024/04/16 21:25:13;;;;;;;1.20;0.77;;;;;;;;;;11044488;26;20070;-61
2024/04/16 21:30:15;;;;;;;1.92;0.90;;;;;;;;;;11050413;26;20001;-65
2024/04/16 21:35:16;;;;;;;0.60;0.60;;;;;;;;;;11045419;26;20004;-64
2024/04/16 21:40:19;;;;;;;2.22;0.80;;;;;;;;;;11023730;26;20034;-66
2024/04/16 21:45:20;;;;;;;1.77;0.85;;;;;;;;;;11049078;26;20364;-66
2024/04/16 21:50:22;;;;;;;2.90;0.80;;;;;;;;;;11045365;26;20008;-61
2024/04/16 21:55:24;;;;;;;3.67;0.82;;;;;;;;;;11051116;26;20001;-62
2024/04/16 22:00:25;;;;;;;2.70;0.80;;;;;;;;;;11047660;26;20783;-59
2024/04/16 22:05:26;;;;;;;0.73;0.70;;;;;;;;;;11172790;21;20209;-65
2024/04/16 22:10:27;;;;;;;4.85;0.65;;;;;;;;;;11185777;26;20559;-59
2024/04/16 22:15:29;;;;;;;2.67;0.60;;;;;;;;;;11150145;26;20007;-61
2024/04/16 22:20:34;;;;;;;1.77;0.63;;;;;;;;;;11191371;26;20508;-66
2024/04/16 22:25:35;;;;;;;1.88;0.82;;;;;;;;;;11132723;26;20053;-66
2024/04/16 22:30:36;;;;;;;2.38;0.93;;;;;;;;;;11160050;26;20032;-65
2024/04/16 22:35:37;;;;;;;4.20;0.68;;;;;;;;;;11152726;26;20077;-64
2024/04/16 22:40:39;;;;;;;0.82;0.75;;;;;;;;;;11167543;26;19999;-64
2024/04/16 22:45:49;;;;;;;1.98;0.90;;;;;;;;;;11164518;26;20011;-63
2024/04/16 22:50:52;;;;;;;3.25;1.13;;;;;;;;;;11146189;26;20000;-64
2024/04/16 22:55:53;;;;;;;2.05;0.90;;;;;;;;;;11141767;26;20000;-64
2024/04/16 23:00:55;;;;;;;4.95;0.90;;;;;;;;;;11151812;26;20122;-65
2024/04/16 23:05:56;;;;;;;1.00;0.70;;;;;;;;;;11173814;26;20450;-63
2024/04/16 23:11:00;;;;;;;10.43;1.08;;;;;;;;;;11153915;26;20039;-58
2024/04/16 23:16:01;;;;;;;1.73;0.70;;;;;;;;;;11119047;26;20023;-64
2024/04/16 23:21:02;;;;;;;0.60;0.60;;;;;;;;;;11150965;26;20035;-64
2024/04/16 23:26:03;;;;;;;1.02;0.93;;;;;;;;;;11151475;26;20362;-62
2024/04/16 23:31:04;;;;;;;4.43;1.00;;;;;;;;;;11200586;26;20034;-60
2024/04/16 23:36:05;;;;;;;0.80;0.80;;;;;;;;;;11200655;26;20028;-60
2024/04/16 23:41:07;;;;;;;0.93;0.90;;;;;;;;;;11196686;26;20094;-64
2024/04/16 23:46:08;;;;;;;2.30;1.00;;;;;;;;;;11181878;26;20333;-63
2024/04/16 23:51:09;;;;;;;3.63;0.90;;;;;;;;;;11197612;26;20046;-63
2024/04/16 23:56:10;;;;;;;5.63;0.75;;;;;;;;;;11198165;26;20000;-64
